sensor_id;sensor_type;location;lat;lon;timestamp;pressure;altitude;pressure_sealevel;temperature;humidity
68889;BME280;55930;47.412;8.790;2024-01-16T00:01:47;93980.69;;;-2.63;100.00
68889;BME280;55930;47.412;8.790;2024-01-16T00:05:08;93998.50;;;-2.65;100.00
68889;BME280;55930;47.412;8.790;2024-01-16T00:08:29;93986.94;;;-2.61;100.00
68889;BME280;55930;47.412;8.790;2024-01-16T00:11:49;93991.47;;;-2.68;100.00
68889;BME280;55930;47.412;8.790;2024-01-16T00:15:10;94000.66;;;-2.60;100.00
68889;BME280;55930;47.412;8.790;2024-01-16T00:18:30;93993.22;;;-2.58;100.00
68889;BME280;55930;47.412;8.790;2024-01-16T00:21:51;93996.94;;;-2.59;100.00
68889;BME280;55930;47.412;8.790;2024-01-16T00:25:11;93999.94;;;-2.61;100.00
68889;BME280;55930;47.412;8.790;2024-01-16T00:28:32;93996.88;;;-2.52;100.00
68889;BME280;55930;47.412;8.790;2024-01-16T00:31:53;93987.25;;;-2.55;100.00
68889;BME280;55930;47.412;8.790;2024-01-16T00:35:13;93989.91;;;-2.59;100.00
68889;BME280;55930;47.412;8.790;2024-01-16T00:38:33;93995.84;;;-2.62;100.00
68889;BME280;55930;47.412;8.790;2024-01-16T00:41:54;94002.53;;;-2.61;100.00
68889;BME280;55930;47.412;8.790;2024-01-16T00:45:14;93999.91;;;-2.57;100.00
68889;BME280;55930;47.412;8.790;2024-01-16T00:48:35;93995.38;;;-2.53;100.00
68889;BME280;55930;47.412;8.790;2024-01-16T00:51:55;93991.75;;;-2.59;100.00
68889;BME280;55930;47.412;8.790;2024-01-16T00:55:18;93986.56;;;-2.59;100.00
68889;BME280;55930;47.412;8.790;2024-01-16T00:58:41;94001.69;;;-2.54;100.00
68889;BME280;55930;47.412;8.790;2024-01-16T01:02:01;93988.72;;;-2.54;100.00
68889;BME280;55930;47.412;8.790;2024-01-16T01:05:21;93997.72;;;-2.62;100.00
68889;BME280;55930;47.412;8.790;2024-01-16T01:08:45;94007.56;;;-2.81;100.00
68889;BME280;55930;47.412;8.790;2024-01-16T01:12:06;94004.50;;;-2.72;100.00
68889;BME280;55930;47.412;8.790;2024-01-16T01:15:26;94004.50;;;-2.72;100.00
68889;BME280;55930;47.412;8.790;2024-01-16T01:18:47;94007.16;;;-2.79;100.00
68889;BME280;55930;47.412;8.790;2024-01-16T01:22:10;94010.03;;;-2.70;100.00
68889;BME280;55930;47.412;8.790;2024-01-16T01:25:30;94015.34;;;-2.81;100.00
68889;BME280;55930;47.412;8.790;2024-01-16T01:28:51;94022.41;;;-2.85;100.00
68889;BME280;55930;47.412;8.790;2024-01-16T01:32:12;94023.91;;;-2.87;100.00
68889;BME280;55930;47.412;8.790;2024-01-16T01:35:33;94027.72;;;-2.95;100.00
68889;BME280;55930;47.412;8.790;2024-01-16T01:38:53;94021.66;;;-2.85;100.00
68889;BME280;55930;47.412;8.790;2024-01-16T01:42:15;94020.69;;;-2.98;100.00
68889;BME280;55930;47.412;8.790;2024-01-16T01:45:35;94028.78;;;-2.93;100.00
68889;BME280;55930;47.412;8.790;2024-01-16T01:48:56;94016.59;;;-2.96;100.00
68889;BME280;55930;47.412;8.790;2024-01-16T01:52:16;94017.72;;;-2.97;100.00
68889;BME280;55930;47.412;8.790;2024-01-16T01:55:37;94017.81;;;-3.08;100.00
68889;BME280;55930;47.412;8.790;2024-01-16T01:58:57;94025.22;;;-3.06;100.00
68889;BME280;55930;47.412;8.790;2024-01-16T02:02:22;94033.72;;;-3.05;100.00
68889;BME280;55930;47.412;8.790;2024-01-16T02:05:42;94030.75;;;-3.04;100.00
68889;BME280;55930;47.412;8.790;2024-01-16T02:09:04;94019.06;;;-3.26;100.00
68889;BME280;55930;47.412;8.790;2024-01-16T02:12:27;94015.34;;;-3.22;100.00
68889;BME280;55930;47.412;8.790;2024-01-16T02:15:47;94022.00;;;-3.21;100.00
68889;BME280;55930;47.412;8.790;2024-01-16T02:19:08;94026.16;;;-3.34;100.00
68889;BME280;55930;47.412;8.790;2024-01-16T02:22:28;94018.00;;;-3.32;100.00
68889;BME280;55930;47.412;8.790;2024-01-16T02:25:53;94018.66;;;-3.21;100.00
68889;BME280;55930;47.412;8.790;2024-01-16T02:29:16;94010.47;;;-3.16;100.00
68889;BME280;55930;47.412;8.790;2024-01-16T02:32:37;94008.22;;;-3.14;100.00
68889;BME280;55930;47.412;8.790;2024-01-16T02:35:58;93997.13;;;-3.18;100.00
68889;BME280;55930;47.412;8.790;2024-01-16T02:39:18;93996.75;;;-3.17;100.00
68889;BME280;55930;47.412;8.790;2024-01-16T02:42:43;94005.31;;;-3.20;100.00
68889;BME280;55930;47.412;8.790;2024-01-16T02:46:04;94009.09;;;-3.28;100.00
68889;BME280;55930;47.412;8.790;2024-01-16T02:49:24;93999.09;;;-3.29;100.00
68889;BME280;55930;47.412;8.790;2024-01-16T02:52:46;93993.19;;;-3.33;100.00
68889;BME280;55930;47.412;8.790;2024-01-16T02:56:07;93999.78;;;-3.25;100.00
68889;BME280;55930;47.412;8.790;2024-01-16T02:59:28;93997.25;;;-3.32;100.00
68889;BME280;55930;47.412;8.790;2024-01-16T03:02:50;94001.28;;;-3.24;100.00
68889;BME280;55930;47.412;8.790;2024-01-16T03:06:21;94000.91;;;-3.26;100.00
68889;BME280;55930;47.412;8.790;2024-01-16T03:09:42;93995.38;;;-3.28;100.00
68889;BME280;55930;47.412;8.790;2024-01-16T03:13:02;93999.78;;;-3.25;100.00
68889;BME280;55930;47.412;8.790;2024-01-16T03:16:23;93992.81;;;-3.32;100.00
68889;BME280;55930;47.412;8.790;2024-01-16T03:19:43;93999.84;;;-3.29;100.00
68889;BME280;55930;47.412;8.790;2024-01-16T03:23:04;93992.84;;;-3.35;100.00
68889;BME280;55930;47.412;8.790;2024-01-16T03:26:24;93990.97;;;-3.31;100.00
68889;BME280;55930;47.412;8.790;2024-01-16T03:29:44;93990.91;;;-3.24;100.00
68889;BME280;55930;47.412;8.790;2024-01-16T03:33:05;93985.72;;;-3.24;100.00
68889;BME280;55930;47.412;8.790;2024-01-16T03:36:26;93995.22;;;-3.11;100.00
68889;BME280;55930;47.412;8.790;2024-01-16T03:39:46;93990.88;;;-3.21;100.00
68889;BME280;55930;47.412;8.790;2024-01-16T03:43:09;93996.13;;;-3.28;100.00
68889;BME280;55930;47.412;8.790;2024-01-16T03:46:29;93996.16;;;-3.31;100.00
68889;BME280;55930;47.412;8.790;2024-01-16T03:49:50;93980.47;;;-3.17;100.00
68889;BME280;55930;47.412;8.790;2024-01-16T03:53:12;93977.63;;;-3.30;100.00
68889;BME280;55930;47.412;8.790;2024-01-16T03:56:32;93973.84;;;-3.25;100.00
68889;BME280;55930;47.412;8.790;2024-01-16T03:59:53;93981.31;;;-3.27;100.00
68889;BME280;55930;47.412;8.790;2024-01-16T04:03:13;93987.22;;;-3.27;100.00
68889;BME280;55930;47.412;8.790;2024-01-16T04:06:34;93977.94;;;-3.24;100.00
68889;BME280;55930;47.412;8.790;2024-01-16T04:09:54;93971.25;;;-3.22;100.00
68889;BME280;55930;47.412;8.790;2024-01-16T04:13:17;93963.09;;;-3.20;100.00
68889;BME280;55930;47.412;8.790;2024-01-16T04:16:38;93953.63;;;-3.41;100.00
68889;BME280;55930;47.412;8.790;2024-01-16T04:19:58;93961.00;;;-3.36;100.00
68889;BME280;55930;47.412;8.790;2024-01-16T04:23:19;93948.34;;;-3.30;100.00
68889;BME280;55930;47.412;8.790;2024-01-16T04:26:39;93951.38;;;-3.35;100.00
68889;BME280;55930;47.412;8.790;2024-01-16T04:30:00;93961.09;;;-3.47;100.00
68889;BME280;55930;47.412;8.790;2024-01-16T04:33:20;93955.91;;;-3.47;100.00
68889;BME280;55930;47.412;8.790;2024-01-16T04:36:43;93961.91;;;-3.57;100.00
68889;BME280;55930;47.412;8.790;2024-01-16T04:40:04;93952.25;;;-3.53;100.00
68889;BME280;55930;47.412;8.790;2024-01-16T04:43:25;93963.44;;;-3.63;100.00
68889;BME280;55930;47.412;8.790;2024-01-16T04:46:45;93953.50;;;-3.68;100.00
68889;BME280;55930;47.412;8.790;2024-01-16T04:50:06;93950.91;;;-3.68;100.00
68889;BME280;55930;47.412;8.790;2024-01-16T04:53:30;93948.34;;;-3.75;100.00
68889;BME280;55930;47.412;8.790;2024-01-16T04:56:51;93954.66;;;-3.79;100.00
68889;BME280;55930;47.412;8.790;2024-01-16T05:00:11;93955.16;;;-3.95;100.00
68889;BME280;55930;47.412;8.790;2024-01-16T05:03:34;93962.50;;;-3.87;100.00
68889;BME280;55930;47.412;8.790;2024-01-16T05:06:55;93963.34;;;-4.00;100.00
68889;BME280;55930;47.412;8.790;2024-01-16T05:10:15;93961.06;;;-3.98;100.00
68889;BME280;55930;47.412;8.790;2024-01-16T05:13:35;93942.25;;;-4.02;100.00
68889;BME280;55930;47.412;8.790;2024-01-16T05:16:56;93942.94;;;-3.91;100.00
68889;BME280;55930;47.412;8.790;2024-01-16T05:20:16;93935.84;;;-3.83;100.00
68889;BME280;55930;47.412;8.790;2024-01-16T05:23:36;93930.25;;;-3.82;100.00
68889;BME280;55930;47.412;8.790;2024-01-16T05:26:57;93920.63;;;-3.78;100.00
68889;BME280;55930;47.412;8.790;2024-01-16T05:30:17;93915.88;;;-3.87;100.00
68889;BME280;55930;47.412;8.790;2024-01-16T05:33:38;93920.63;;;-3.81;100.00
68889;BME280;55930;47.412;8.790;2024-01-16T05:36:58;93909.50;;;-3.78;100.00
68889;BME280;55930;47.412;8.790;2024-01-16T05:40:18;93903.59;;;-3.82;100.00
68889;BME280;55930;47.412;8.790;2024-01-16T05:43:41;93909.16;;;-3.80;100.00
68889;BME280;55930;47.412;8.790;2024-01-16T05:47:04;93902.88;;;-3.83;100.00
68889;BME280;55930;47.412;8.790;2024-01-16T05:50:25;93896.94;;;-3.80;100.00
68889;BME280;55930;47.412;8.790;2024-01-16T05:53:46;93898.78;;;-3.77;100.00
68889;BME280;55930;47.412;8.790;2024-01-16T05:57:06;93905.44;;;-3.76;100.00
68889;BME280;55930;47.412;8.790;2024-01-16T06:00:26;93903.59;;;-3.79;100.00
68889;BME280;55930;47.412;8.790;2024-01-16T06:03:47;93898.34;;;-3.72;100.00
68889;BME280;55930;47.412;8.790;2024-01-16T06:07:09;93898.72;;;-3.70;100.00
68889;BME280;55930;47.412;8.790;2024-01-16T06:10:29;93892.13;;;-3.78;100.00
68889;BME280;55930;47.412;8.790;2024-01-16T06:13:49;93897.63;;;-3.72;100.00
68889;BME280;55930;47.412;8.790;2024-01-16T06:17:10;93900.19;;;-3.69;100.00
68889;BME280;55930;47.412;8.790;2024-01-16T06:20:30;93904.94;;;-3.64;100.00
68889;BME280;55930;47.412;8.790;2024-01-16T06:23:50;93902.34;;;-3.64;100.00
68889;BME280;55930;47.412;8.790;2024-01-16T06:27:11;93907.22;;;-3.69;100.00
68889;BME280;55930;47.412;8.790;2024-01-16T06:30:34;93906.13;;;-3.72;100.00
68889;BME280;55930;47.412;8.790;2024-01-16T06:33:54;93901.63;;;-3.64;100.00
68889;BME280;55930;47.412;8.790;2024-01-16T06:37:15;93897.53;;;-3.62;100.00
68889;BME280;55930;47.412;8.790;2024-01-16T06:40:35;93903.38;;;-3.54;100.00
68889;BME280;55930;47.412;8.790;2024-01-16T06:43:55;93889.75;;;-3.62;100.00
68889;BME280;55930;47.412;8.790;2024-01-16T06:47:16;93896.03;;;-3.59;100.00
68889;BME280;55930;47.412;8.790;2024-01-16T06:50:36;93898.94;;;-3.54;100.00
68889;BME280;55930;47.412;8.790;2024-01-16T06:53:56;93891.19;;;-3.57;100.00
68889;BME280;55930;47.412;8.790;2024-01-16T06:57:17;93890.44;;;-3.58;100.00
68889;BME280;55930;47.412;8.790;2024-01-16T07:00:37;93894.91;;;-3.58;100.00
68889;BME280;55930;47.412;8.790;2024-01-16T07:03:57;93884.56;;;-3.62;100.00
68889;BME280;55930;47.412;8.790;2024-01-16T07:07:18;93884.13;;;-3.53;100.00
68889;BME280;55930;47.412;8.790;2024-01-16T07:10:38;93874.91;;;-3.58;100.00
68889;BME280;55930;47.412;8.790;2024-01-16T07:13:58;93877.09;;;-3.56;100.00
68889;BME280;55930;47.412;8.790;2024-01-16T07:17:19;93873.75;;;-3.53;100.00
68889;BME280;55930;47.412;8.790;2024-01-16T07:20:40;93874.81;;;-3.51;100.00
68889;BME280;55930;47.412;8.790;2024-01-16T07:24:00;93870.38;;;-3.47;100.00
68889;BME280;55930;47.412;8.790;2024-01-16T07:27:21;93866.59;;;-3.38;100.00
68889;BME280;55930;47.412;8.790;2024-01-16T07:30:41;93872.06;;;-3.33;100.00
68889;BME280;55930;47.412;8.790;2024-01-16T07:34:03;93875.03;;;-3.31;100.00
68889;BME280;55930;47.412;8.790;2024-01-16T07:37:23;93882.78;;;-3.27;100.00
68889;BME280;55930;47.412;8.790;2024-01-16T07:40:44;93878.97;;;-3.19;100.00
68889;BME280;55930;47.412;8.790;2024-01-16T07:44:04;93876.81;;;-3.24;100.00
68889;BME280;55930;47.412;8.790;2024-01-16T07:47:25;93881.91;;;-3.17;100.00
68889;BME280;55930;47.412;8.790;2024-01-16T07:50:45;93879.22;;;-3.10;100.00
68889;BME280;55930;47.412;8.790;2024-01-16T07:54:07;93879.09;;;-2.96;100.00
68889;BME280;55930;47.412;8.790;2024-01-16T07:57:28;93878.50;;;-2.77;100.00
68889;BME280;55930;47.412;8.790;2024-01-16T08:00:48;93874.31;;;-2.71;100.00
68889;BME280;55930;47.412;8.790;2024-01-16T08:04:09;93866.28;;;-1.29;100.00
68889;BME280;55930;47.412;8.790;2024-01-16T08:07:30;93857.94;;;-1.01;100.00
68889;BME280;55930;47.412;8.790;2024-01-16T08:10:50;93861.38;;;-1.27;100.00
68889;BME280;55930;47.412;8.790;2024-01-16T08:14:10;93856.19;;;-0.68;100.00
68889;BME280;55930;47.412;8.790;2024-01-16T08:17:31;93855.66;;;-1.19;100.00
68889;BME280;55930;47.412;8.790;2024-01-16T08:20:51;93855.13;;;-1.30;100.00
68889;BME280;55930;47.412;8.790;2024-01-16T08:24:11;93855.53;;;-1.11;100.00
68889;BME280;55930;47.412;8.790;2024-01-16T08:27:35;93849.13;;;-0.87;100.00
68889;BME280;55930;47.412;8.790;2024-01-16T08:30:57;93851.63;;;0.37;100.00
68889;BME280;55930;47.412;8.790;2024-01-16T08:34:20;93839.72;;;0.20;100.00
68889;BME280;55930;47.412;8.790;2024-01-16T08:37:43;93841.03;;;-0.05;100.00
68889;BME280;55930;47.412;8.790;2024-01-16T08:41:07;93843.66;;;11.04;96.52
68889;BME280;55930;47.412;8.790;2024-01-16T08:44:27;93829.22;;;4.98;65.90
68889;BME280;55930;47.412;8.790;2024-01-16T08:47:48;93832.38;;;1.30;83.41
68889;BME280;55930;47.412;8.790;2024-01-16T08:51:10;93832.88;;;0.26;100.00
68889;BME280;55930;47.412;8.790;2024-01-16T08:54:32;93838.78;;;2.52;100.00
68889;BME280;55930;47.412;8.790;2024-01-16T08:57:52;93829.69;;;15.48;49.87
68889;BME280;55930;47.412;8.790;2024-01-16T09:01:12;93825.38;;;16.22;37.79
68889;BME280;55930;47.412;8.790;2024-01-16T09:04:33;93807.91;;;17.34;34.12
68889;BME280;55930;47.412;8.790;2024-01-16T09:07:54;93809.25;;;17.61;32.44
68889;BME280;55930;47.412;8.790;2024-01-16T09:11:14;93805.53;;;16.30;32.88
68889;BME280;55930;47.412;8.790;2024-01-16T09:14:35;93803.97;;;13.26;37.07
68889;BME280;55930;47.412;8.790;2024-01-16T09:17:55;93804.88;;;10.05;42.58
68889;BME280;55930;47.412;8.790;2024-01-16T09:21:16;93810.75;;;6.43;50.54
68889;BME280;55930;47.412;8.790;2024-01-16T09:24:36;93821.47;;;5.73;56.27
68889;BME280;55930;47.412;8.790;2024-01-16T09:27:56;93819.16;;;5.99;59.08
68889;BME280;55930;47.412;8.790;2024-01-16T09:31:17;93827.78;;;6.33;59.12
68889;BME280;55930;47.412;8.790;2024-01-16T09:34:37;93822.72;;;5.45;60.87
68889;BME280;55930;47.412;8.790;2024-01-16T09:37:58;93822.34;;;6.36;61.16
68889;BME280;55930;47.412;8.790;2024-01-16T09:41:21;93823.28;;;5.58;62.34
68889;BME280;55930;47.412;8.790;2024-01-16T09:44:41;93826.28;;;5.06;62.86
68889;BME280;55930;47.412;8.790;2024-01-16T09:48:03;93825.56;;;4.50;65.04
68889;BME280;55930;47.412;8.790;2024-01-16T09:51:25;93828.50;;;4.61;67.15
68889;BME280;55930;47.412;8.790;2024-01-16T09:54:45;93831.16;;;3.94;69.43
68889;BME280;55930;47.412;8.790;2024-01-16T09:58:07;93832.25;;;2.91;74.98
68889;BME280;55930;47.412;8.790;2024-01-16T10:01:33;93832.91;;;3.04;75.76
68889;BME280;55930;47.412;8.790;2024-01-16T10:04:53;93821.16;;;3.09;79.89
68889;BME280;55930;47.412;8.790;2024-01-16T10:08:13;93824.94;;;4.19;78.68
68889;BME280;55930;47.412;8.790;2024-01-16T10:11:34;93819.03;;;3.47;78.13
68889;BME280;55930;47.412;8.790;2024-01-16T10:14:55;93824.22;;;3.38;79.59
68889;BME280;55930;47.412;8.790;2024-01-16T10:18:23;93814.94;;;2.72;83.10
68889;BME280;55930;47.412;8.790;2024-01-16T10:21:47;93814.31;;;2.46;85.77
68889;BME280;55930;47.412;8.790;2024-01-16T10:25:11;93805.56;;;2.84;86.84
68889;BME280;55930;47.412;8.790;2024-01-16T10:28:33;93817.53;;;2.50;87.29
68889;BME280;55930;47.412;8.790;2024-01-16T10:31:54;93820.34;;;2.56;89.71
68889;BME280;55930;47.412;8.790;2024-01-16T10:35:14;93803.75;;;2.93;87.42
68889;BME280;55930;47.412;8.790;2024-01-16T10:38:39;93805.22;;;2.38;89.56
68889;BME280;55930;47.412;8.790;2024-01-16T10:42:00;93809.72;;;2.38;92.36
68889;BME280;55930;47.412;8.790;2024-01-16T10:45:23;93794.47;;;2.58;93.83
68889;BME280;55930;47.412;8.790;2024-01-16T10:48:45;93802.41;;;3.41;91.65
68889;BME280;55930;47.412;8.790;2024-01-16T10:52:18;93791.13;;;4.21;86.85
68889;BME280;55930;47.412;8.790;2024-01-16T10:55:48;93778.03;;;4.30;83.76
68889;BME280;55930;47.412;8.790;2024-01-16T10:59:27;93782.38;;;4.24;82.83
68889;BME280;55930;47.412;8.790;2024-01-16T11:06:23;93786.16;;;4.87;84.34
68889;BME280;55930;47.412;8.790;2024-01-16T11:09:44;93787.88;;;3.50;83.29
68889;BME280;55930;47.412;8.790;2024-01-16T11:13:06;93774.59;;;5.12;81.43
68889;BME280;55930;47.412;8.790;2024-01-16T11:16:27;93778.41;;;6.19;77.05
68889;BME280;55930;47.412;8.790;2024-01-16T11:19:49;93765.19;;;5.29;75.17
68889;BME280;55930;47.412;8.790;2024-01-16T11:23:11;93761.69;;;5.74;75.64
68889;BME280;55930;47.412;8.790;2024-01-16T11:26:34;93763.69;;;5.46;74.88
68889;BME280;55930;47.412;8.790;2024-01-16T11:29:56;93760.25;;;6.44;71.29
68889;BME280;55930;47.412;8.790;2024-01-16T11:36:55;93751.69;;;7.67;66.14
68889;BME280;55930;47.412;8.790;2024-01-16T11:43:46;93726.69;;;7.97;66.44
68889;BME280;55930;47.412;8.790;2024-01-16T11:47:06;93733.84;;;6.53;65.54
68889;BME280;55930;47.412;8.790;2024-01-16T11:50:28;93722.31;;;7.24;67.64
68889;BME280;55930;47.412;8.790;2024-01-16T11:53:51;93720.50;;;7.51;63.54
68889;BME280;55930;47.412;8.790;2024-01-16T11:57:43;93717.91;;;6.63;66.05
68889;BME280;55930;47.412;8.790;2024-01-16T12:01:05;93699.44;;;7.71;65.01
68889;BME280;55930;47.412;8.790;2024-01-16T12:04:26;93710.78;;;6.01;64.64
68889;BME280;55930;47.412;8.790;2024-01-16T12:07:51;93708.84;;;7.22;64.80
68889;BME280;55930;47.412;8.790;2024-01-16T12:11:18;93708.53;;;8.71;62.07
68889;BME280;55930;47.412;8.790;2024-01-16T12:14:51;93699.41;;;7.51;62.87
68889;BME280;55930;47.412;8.790;2024-01-16T12:18:18;93702.88;;;6.93;63.55
68889;BME280;55930;47.412;8.790;2024-01-16T12:25:00;93696.38;;;7.23;64.39
68889;BME280;55930;47.412;8.790;2024-01-16T12:28:24;93702.53;;;7.35;65.95
68889;BME280;55930;47.412;8.790;2024-01-16T12:31:45;93692.31;;;7.77;63.58
68889;BME280;55930;47.412;8.790;2024-01-16T12:35:05;93689.50;;;6.52;64.90
68889;BME280;55930;47.412;8.790;2024-01-16T12:38:25;93690.94;;;6.38;67.68
68889;BME280;55930;47.412;8.790;2024-01-16T12:41:46;93692.75;;;5.28;68.95
68889;BME280;55930;47.412;8.790;2024-01-16T12:45:09;93688.13;;;5.14;72.31
68889;BME280;55930;47.412;8.790;2024-01-16T12:48:30;93686.63;;;5.22;74.01
68889;BME280;55930;47.412;8.790;2024-01-16T12:51:51;93684.59;;;5.83;72.29
68889;BME280;55930;47.412;8.790;2024-01-16T12:55:13;93678.22;;;7.45;68.56
68889;BME280;55930;47.412;8.790;2024-01-16T12:58:35;93676.13;;;6.41;67.35
68889;BME280;55930;47.412;8.790;2024-01-16T13:01:56;93671.09;;;6.13;67.15
68889;BME280;55930;47.412;8.790;2024-01-16T13:05:16;93668.84;;;5.73;68.08
68889;BME280;55930;47.412;8.790;2024-01-16T13:08:39;93646.75;;;11.34;58.12
68889;BME280;55930;47.412;8.790;2024-01-16T13:11:59;93648.16;;;6.58;64.43
68889;BME280;55930;47.412;8.790;2024-01-16T13:15:20;93641.38;;;8.89;60.16
68889;BME280;55930;47.412;8.790;2024-01-16T13:18:40;93648.16;;;5.10;65.52
68889;BME280;55930;47.412;8.790;2024-01-16T13:22:01;93647.09;;;4.74;71.15
68889;BME280;55930;47.412;8.790;2024-01-16T13:25:21;93627.50;;;3.33;76.99
68889;BME280;55930;47.412;8.790;2024-01-16T13:28:42;93632.47;;;7.48;71.53
68889;BME280;55930;47.412;8.790;2024-01-16T13:32:03;93625.44;;;6.46;72.84
68889;BME280;55930;47.412;8.790;2024-01-16T13:35:24;93623.50;;;12.37;55.52
68889;BME280;55930;47.412;8.790;2024-01-16T13:38:47;93626.25;;;14.55;51.16
68889;BME280;55930;47.412;8.790;2024-01-16T13:42:07;93636.63;;;7.95;55.12
68889;BME280;55930;47.412;8.790;2024-01-16T13:45:28;93634.25;;;6.28;60.63
68889;BME280;55930;47.412;8.790;2024-01-16T13:48:48;93629.13;;;13.28;50.08
68889;BME280;55930;47.412;8.790;2024-01-16T13:52:09;93625.69;;;13.58;47.58
68889;BME280;55930;47.412;8.790;2024-01-16T13:55:29;93622.41;;;6.24;57.27
68889;BME280;55930;47.412;8.790;2024-01-16T13:58:52;93630.31;;;3.93;69.31
68889;BME280;55930;47.412;8.790;2024-01-16T14:02:12;93632.31;;;4.07;73.06
68889;BME280;55930;47.412;8.790;2024-01-16T14:05:32;93625.59;;;6.72;70.65
68889;BME280;55930;47.412;8.790;2024-01-16T14:08:53;93624.03;;;6.95;63.60
68889;BME280;55930;47.412;8.790;2024-01-16T14:12:13;93619.25;;;6.49;63.47
68889;BME280;55930;47.412;8.790;2024-01-16T14:15:34;93624.53;;;5.00;68.78
68889;BME280;55930;47.412;8.790;2024-01-16T14:18:54;93622.44;;;3.57;76.61
68889;BME280;55930;47.412;8.790;2024-01-16T14:22:14;93611.44;;;7.74;69.69
68889;BME280;55930;47.412;8.790;2024-01-16T14:25:35;93608.41;;;12.09;52.27
68889;BME280;55930;47.412;8.790;2024-01-16T14:28:56;93605.19;;;11.59;51.13
68889;BME280;55930;47.412;8.790;2024-01-16T14:32:17;93614.66;;;10.20;53.39
68889;BME280;55930;47.412;8.790;2024-01-16T14:35:37;93601.19;;;10.52;49.95
68889;BME280;55930;47.412;8.790;2024-01-16T14:38:58;93597.44;;;12.24;48.51
68889;BME280;55930;47.412;8.790;2024-01-16T14:42:18;93613.16;;;12.27;46.66
68889;BME280;55930;47.412;8.790;2024-01-16T14:45:38;93607.34;;;11.71;47.19
68889;BME280;55930;47.412;8.790;2024-01-16T14:48:59;93609.38;;;10.48;50.23
68889;BME280;55930;47.412;8.790;2024-01-16T14:52:19;93608.97;;;7.50;53.77
68889;BME280;55930;47.412;8.790;2024-01-16T14:55:39;93606.25;;;3.76;67.19
68889;BME280;55930;47.412;8.790;2024-01-16T14:59:00;93610.63;;;2.85;77.33
68889;BME280;55930;47.412;8.790;2024-01-16T15:02:20;93608.75;;;2.23;85.41
68889;BME280;55930;47.412;8.790;2024-01-16T15:05:49;93611.84;;;1.87;94.79
68889;BME280;55930;47.412;8.790;2024-01-16T15:09:09;93608.88;;;1.42;100.00
68889;BME280;55930;47.412;8.790;2024-01-16T15:12:32;93613.50;;;1.12;100.00
68889;BME280;55930;47.412;8.790;2024-01-16T15:15:55;93612.91;;;0.83;100.00
68889;BME280;55930;47.412;8.790;2024-01-16T15:19:16;93614.16;;;0.66;100.00
68889;BME280;55930;47.412;8.790;2024-01-16T15:22:45;93614.66;;;0.48;100.00
68889;BME280;55930;47.412;8.790;2024-01-16T15:26:13;93618.81;;;0.20;100.00
68889;BME280;55930;47.412;8.790;2024-01-16T15:29:41;93621.00;;;-0.20;100.00
68889;BME280;55930;47.412;8.790;2024-01-16T15:33:02;93618.13;;;-0.09;100.00
68889;BME280;55930;47.412;8.790;2024-01-16T15:36:25;93621.59;;;-0.28;100.00
68889;BME280;55930;47.412;8.790;2024-01-16T15:39:46;93615.59;;;-0.42;100.00
68889;BME280;55930;47.412;8.790;2024-01-16T15:43:06;93609.63;;;-0.71;100.00
68889;BME280;55930;47.412;8.790;2024-01-16T15:46:27;93612.41;;;-0.94;100.00
68889;BME280;55930;47.412;8.790;2024-01-16T15:49:47;93628.19;;;-1.01;100.00
68889;BME280;55930;47.412;8.790;2024-01-16T15:53:13;93629.00;;;-1.04;100.00
68889;BME280;55930;47.412;8.790;2024-01-16T15:56:35;93624.44;;;-1.17;100.00
68889;BME280;55930;47.412;8.790;2024-01-16T15:59:55;93632.63;;;-1.34;100.00
68889;BME280;55930;47.412;8.790;2024-01-16T16:03:19;93635.66;;;-1.36;100.00
68889;BME280;55930;47.412;8.790;2024-01-16T16:06:41;93644.00;;;-1.44;100.00
68889;BME280;55930;47.412;8.790;2024-01-16T16:10:01;93648.50;;;-1.65;100.00
68889;BME280;55930;47.412;8.790;2024-01-16T16:13:21;93654.56;;;-1.71;100.00
68889;BME280;55930;47.412;8.790;2024-01-16T16:16:43;93663.56;;;-1.96;100.00
68889;BME280;55930;47.412;8.790;2024-01-16T16:20:03;93667.91;;;-1.89;100.00
68889;BME280;55930;47.412;8.790;2024-01-16T16:23:24;93671.38;;;-1.96;100.00
68889;BME280;55930;47.412;8.790;2024-01-16T16:26:45;93664.97;;;-1.91;100.00
68889;BME280;55930;47.412;8.790;2024-01-16T16:30:08;93667.09;;;-1.86;100.00
68889;BME280;55930;47.412;8.790;2024-01-16T16:33:28;93670.16;;;-2.11;100.00
68889;BME280;55930;47.412;8.790;2024-01-16T16:36:49;93670.72;;;-2.23;100.00
68889;BME280;55930;47.412;8.790;2024-01-16T16:40:10;93666.63;;;-2.20;100.00
68889;BME280;55930;47.412;8.790;2024-01-16T16:43:32;93681.13;;;-2.23;100.00
68889;BME280;55930;47.412;8.790;2024-01-16T16:46:52;93680.81;;;-2.25;100.00
68889;BME280;55930;47.412;8.790;2024-01-16T16:50:13;93684.19;;;-2.28;100.00
68889;BME280;55930;47.412;8.790;2024-01-16T16:53:34;93680.16;;;-2.09;100.00
68889;BME280;55930;47.412;8.790;2024-01-16T16:56:55;93680.75;;;-2.02;100.00
68889;BME280;55930;47.412;8.790;2024-01-16T17:00:16;93670.03;;;-2.04;100.00
68889;BME280;55930;47.412;8.790;2024-01-16T17:03:40;93671.06;;;-2.21;100.00
68889;BME280;55930;47.412;8.790;2024-01-16T17:07:01;93674.00;;;-1.99;100.00
68889;BME280;55930;47.412;8.790;2024-01-16T17:10:21;93664.44;;;-1.82;100.00
68889;BME280;55930;47.412;8.790;2024-01-16T17:13:42;93664.88;;;-2.07;100.00
68889;BME280;55930;47.412;8.790;2024-01-16T17:17:08;93663.03;;;-2.07;100.00
68889;BME280;55930;47.412;8.790;2024-01-16T17:20:31;93663.16;;;-2.14;100.00
68889;BME280;55930;47.412;8.790;2024-01-16T17:23:54;93654.63;;;-2.34;100.00
68889;BME280;55930;47.412;8.790;2024-01-16T17:27:16;93653.41;;;-2.29;100.00
68889;BME280;55930;47.412;8.790;2024-01-16T17:30:37;93652.72;;;-2.53;100.00
68889;BME280;55930;47.412;8.790;2024-01-16T17:33:58;93661.84;;;-2.45;100.00
68889;BME280;55930;47.412;8.790;2024-01-16T17:37:19;93655.41;;;-2.37;100.00
68889;BME280;55930;47.412;8.790;2024-01-16T17:40:39;93659.44;;;-2.56;100.00
68889;BME280;55930;47.412;8.790;2024-01-16T17:44:00;93660.28;;;-2.62;100.00
68889;BME280;55930;47.412;8.790;2024-01-16T17:47:20;93661.50;;;-2.47;100.00
68889;BME280;55930;47.412;8.790;2024-01-16T17:50:44;93650.47;;;-2.51;100.00
68889;BME280;55930;47.412;8.790;2024-01-16T17:54:04;93638.31;;;-2.35;100.00
68889;BME280;55930;47.412;8.790;2024-01-16T17:57:26;93642.44;;;-2.60;100.00